createdAt,value
2022-12-13T00:01:58.467Z,25.27
2022-12-13T00:04:27.152Z,26.33
2022-12-13T00:06:55.571Z,23.53
2022-12-13T00:09:24.373Z,23.80
2022-12-13T00:11:54.737Z,21.17
2022-12-13T00:14:23.111Z,21.27
2022-12-13T00:16:52.873Z,21.83
2022-12-13T00:19:21.690Z,21.33
2022-12-13T00:21:52.543Z,21.33
2022-12-13T00:24:20.898Z,24.20
2022-12-13T00:26:49.210Z,22.77
2022-12-13T00:29:18.031Z,19.23
2022-12-13T00:31:59.898Z,19.97
2022-12-13T00:34:30.882Z,20.60
2022-12-13T00:37:00.261Z,20.70
2022-12-13T00:39:29.532Z,26.23
2022-12-13T00:41:58.111Z,28.07
2022-12-13T00:44:26.738Z,21.50
2022-12-13T00:46:55.173Z,24.70
2022-12-13T00:49:23.872Z,22.47
2022-12-13T00:51:53.630Z,23.47
2022-12-13T00:54:22.003Z,24.30
2022-12-13T00:56:51.628Z,26.43
2022-12-13T00:59:21.227Z,21.83
2022-12-13T01:01:49.817Z,24.90
2022-12-13T01:04:18.395Z,28.10
2022-12-13T01:06:49.914Z,22.13
2022-12-13T01:09:22.876Z,22.60
2022-12-13T01:11:51.721Z,22.90
2022-12-13T01:14:20.758Z,16.60
2022-12-13T01:16:49.120Z,17.90
2022-12-13T01:19:17.574Z,16.70
2022-12-13T01:21:45.957Z,14.27
2022-12-13T01:24:14.624Z,14.83
2022-12-13T01:26:44.322Z,14.20
2022-12-13T01:29:12.651Z,16.30
2022-12-13T01:31:41.928Z,14.60
2022-12-13T01:34:12.995Z,17.73
2022-12-13T01:36:43.225Z,14.97
2022-12-13T01:39:14.569Z,16.47
2022-12-13T01:41:46.824Z,17.50
2022-12-13T01:44:58.674Z,15.17
2022-12-13T01:47:32.849Z,16.70
2022-12-13T01:50:08.007Z,18.63
2022-12-13T01:52:36.570Z,18.87
2022-12-13T01:55:08.795Z,18.63
2022-12-13T01:57:45.371Z,15.90
2022-12-13T02:00:16.758Z,17.17
2022-12-13T02:02:45.957Z,14.47
2022-12-13T02:05:22.892Z,14.80
2022-12-13T02:07:52.395Z,17.70
2022-12-13T02:10:21.112Z,15.37
2022-12-13T02:12:51.499Z,17.50
2022-12-13T02:15:21.368Z,17.47
2022-12-13T02:18:06.297Z,13.57
2022-12-13T02:21:18.215Z,14.97
2022-12-13T02:24:46.350Z,16.27
2022-12-13T02:27:55.779Z,14.83
2022-12-13T02:30:39.267Z,16.97
2022-12-13T02:33:32.576Z,15.80
2022-12-13T02:36:10.252Z,18.57
2022-12-13T02:38:47.513Z,16.07
2022-12-13T02:41:21.572Z,16.67
2022-12-13T02:44:01.481Z,18.57
2022-12-13T02:46:37.216Z,18.67
2022-12-13T02:49:08.827Z,15.73
2022-12-13T02:51:40.693Z,17.40
2022-12-13T02:54:09.095Z,18.03
2022-12-13T02:56:37.554Z,16.83
2022-12-13T02:59:14.024Z,17.37
2022-12-13T03:01:55.647Z,16.30
2022-12-13T03:05:03.140Z,17.00
2022-12-13T03:07:39.466Z,13.90
2022-12-13T03:10:13.896Z,17.10
2022-12-13T03:13:09.063Z,16.73
2022-12-13T03:15:44.844Z,17.47
2022-12-13T03:18:19.081Z,17.50
2022-12-13T03:20:50.424Z,14.70
2022-12-13T03:23:21.176Z,18.20
2022-12-13T03:25:53.806Z,15.87
2022-12-13T03:28:23.071Z,15.50
2022-12-13T03:30:51.861Z,15.00
2022-12-13T03:33:22.645Z,15.63
2022-12-13T03:35:51.347Z,16.70
2022-12-13T03:38:21.779Z,16.97
2022-12-13T03:40:54.535Z,15.33
2022-12-13T03:43:23.543Z,18.53
2022-12-13T03:45:52.950Z,16.87
2022-12-13T03:48:24.098Z,14.37
2022-12-13T03:50:54.599Z,14.23
2022-12-13T03:53:33.742Z,15.97
2022-12-13T03:56:05.763Z,15.67
2022-12-13T03:58:37.909Z,15.27
2022-12-13T04:01:07.906Z,16.53
2022-12-13T04:03:38.606Z,14.50
2022-12-13T04:06:08.060Z,13.97
2022-12-13T04:08:37.277Z,14.17
2022-12-13T04:11:26.711Z,16.33
2022-12-13T04:13:55.282Z,16.00
2022-12-13T04:16:24.745Z,18.77
2022-12-13T04:18:54.514Z,15.17
2022-12-13T04:21:22.828Z,15.30
2022-12-13T04:23:51.197Z,15.17
2022-12-13T04:26:19.542Z,12.03
2022-12-13T04:28:54.041Z,13.63
2022-12-13T04:31:23.240Z,13.20
2022-12-13T04:33:52.024Z,13.80
2022-12-13T04:36:31.500Z,16.27
2022-12-13T04:39:02.237Z,12.47
2022-12-13T04:41:36.650Z,14.37
2022-12-13T04:44:06.510Z,14.37
2022-12-13T04:46:55.532Z,12.97
2022-12-13T04:49:30.155Z,13.13
2022-12-13T04:52:01.621Z,16.63
2022-12-13T04:54:36.328Z,15.80
2022-12-13T04:57:08.755Z,14.43
2022-12-13T04:59:38.012Z,16.47
2022-12-13T05:02:08.015Z,18.67
2022-12-13T05:04:36.558Z,19.60
2022-12-13T05:07:06.417Z,17.07
2022-12-13T05:09:34.785Z,17.37
2022-12-13T05:12:03.182Z,21.50
2022-12-13T05:14:32.334Z,17.63
2022-12-13T05:17:02.303Z,16.10
2022-12-13T05:19:31.797Z,17.07
2022-12-13T05:22:01.857Z,18.17
2022-12-13T05:24:32.804Z,16.27
2022-12-13T05:27:01.449Z,15.23
2022-12-13T05:29:49.793Z,18.27
2022-12-13T05:32:18.176Z,14.23
2022-12-13T05:34:46.552Z,22.23
2022-12-13T05:37:14.920Z,18.10
2022-12-13T05:39:44.662Z,18.77
2022-12-13T05:42:13.016Z,19.63
2022-12-13T05:44:41.397Z,15.60
2022-12-13T05:47:09.702Z,19.27
2022-12-13T05:49:39.678Z,20.23
2022-12-13T05:52:18.805Z,19.87
2022-12-13T05:54:48.856Z,19.67
2022-12-13T05:57:17.249Z,19.33
2022-12-13T05:59:45.624Z,21.60
2022-12-13T06:02:18.269Z,24.10
2022-12-13T06:04:48.115Z,24.10
2022-12-13T06:07:16.540Z,21.13
2022-12-13T06:09:45.007Z,23.90
2022-12-13T06:12:30.984Z,19.97
2022-12-13T06:15:01.745Z,19.27
2022-12-13T06:17:32.639Z,22.47
2022-12-13T06:20:01.360Z,14.43
2022-12-13T06:22:30.136Z,21.13
2022-12-13T06:24:58.737Z,17.20
2022-12-13T06:27:28.566Z,19.80
2022-12-13T06:30:02.188Z,17.87
2022-12-13T06:32:30.830Z,14.33
2022-12-13T06:34:59.181Z,19.80
2022-12-13T06:37:28.603Z,23.27
2022-12-13T06:39:56.991Z,22.37
2022-12-13T06:42:25.446Z,23.97
2022-12-13T06:44:56.379Z,20.93
2022-12-13T06:47:31.381Z,22.83
2022-12-13T06:50:05.275Z,21.53
2022-12-13T06:52:34.566Z,18.47
2022-12-13T06:55:03.014Z,18.80
2022-12-13T06:57:33.922Z,25.40
2022-12-13T07:00:05.741Z,24.17
2022-12-13T07:02:34.199Z,29.93
2022-12-13T07:05:02.713Z,28.07
2022-12-13T07:07:31.152Z,23.67
2022-12-13T07:09:59.503Z,21.63
2022-12-13T07:12:28.002Z,29.20
2022-12-13T07:14:56.328Z,23.20
2022-12-13T07:17:32.878Z,24.83
2022-12-13T07:20:09.171Z,23.57
2022-12-13T07:22:46.610Z,19.17
2022-12-13T07:25:28.117Z,19.23
2022-12-13T07:28:02.230Z,19.93
2022-12-13T07:30:32.820Z,21.30
2022-12-13T07:33:04.953Z,20.83
2022-12-13T07:35:37.323Z,18.83
2022-12-13T07:38:06.991Z,23.13
2022-12-13T07:40:36.060Z,22.67
2022-12-13T07:43:05.286Z,23.13
2022-12-13T07:45:34.579Z,23.47
2022-12-13T07:48:08.832Z,24.80
2022-12-13T07:50:38.042Z,25.03
2022-12-13T07:53:08.141Z,34.27
2022-12-13T07:55:37.576Z,34.53
2022-12-13T07:58:07.897Z,33.37
2022-12-13T08:00:37.332Z,31.67
2022-12-13T08:03:09.317Z,27.73
2022-12-13T08:05:40.782Z,32.87
2022-12-13T08:08:11.823Z,32.60
2022-12-13T08:10:40.482Z,29.50
2022-12-13T08:13:08.808Z,28.40
2022-12-13T08:15:37.210Z,26.83
2022-12-13T08:18:07.117Z,24.57
2022-12-13T08:20:35.492Z,27.93
2022-12-13T08:23:03.888Z,32.23
2022-12-13T08:25:32.760Z,31.20
2022-12-13T08:28:01.910Z,32.17
2022-12-13T08:30:32.834Z,34.67
2022-12-13T08:33:04.696Z,34.97
2022-12-13T08:35:35.413Z,30.53
2022-12-13T08:38:04.588Z,33.17
2022-12-13T08:40:33.123Z,39.20
2022-12-13T08:43:01.552Z,33.97
2022-12-13T08:45:34.364Z,32.53
2022-12-13T08:48:03.721Z,32.27
2022-12-13T08:50:33.920Z,32.47
2022-12-13T08:53:02.283Z,39.60
2022-12-13T08:55:31.773Z,36.33
2022-12-13T08:58:08.423Z,41.43
2022-12-13T09:00:39.012Z,42.23
2022-12-13T09:03:17.746Z,42.50
2022-12-13T09:05:47.621Z,43.77
2022-12-13T09:08:24.410Z,43.33
2022-12-13T09:11:01.118Z,39.63
2022-12-13T09:13:43.476Z,38.23
2022-12-13T09:16:23.071Z,34.27
2022-12-13T09:18:55.372Z,35.83
2022-12-13T09:21:31.791Z,37.00
2022-12-13T09:24:04.420Z,31.17
2022-12-13T09:26:37.642Z,35.87
2022-12-13T09:29:11.555Z,31.40
2022-12-13T09:31:40.897Z,34.27
2022-12-13T09:34:10.233Z,32.27
2022-12-13T09:36:40.164Z,33.37
2022-12-13T09:39:08.468Z,30.50
2022-12-13T09:41:42.236Z,29.93
2022-12-13T09:44:30.617Z,25.20
2022-12-13T09:47:13.453Z,26.10
2022-12-13T09:49:53.193Z,21.60
2022-12-13T09:52:25.819Z,19.30
2022-12-13T09:54:58.000Z,20.00
2022-12-13T09:57:32.095Z,18.57
2022-12-13T10:00:05.440Z,27.30
2022-12-13T10:02:45.751Z,20.50
2022-12-13T10:05:37.269Z,21.43
2022-12-13T10:08:14.895Z,20.80
2022-12-13T10:10:43.839Z,22.93
2022-12-13T10:13:21.134Z,20.13
2022-12-13T10:15:54.529Z,15.33
2022-12-13T10:18:34.888Z,18.13
2022-12-13T10:21:06.578Z,16.83
2022-12-13T10:24:06.946Z,19.00
2022-12-13T10:26:25.175Z,15.20
2022-12-13T10:29:05.111Z,18.07
2022-12-13T10:31:41.672Z,17.33
2022-12-13T10:34:23.414Z,14.77
2022-12-13T10:36:52.491Z,13.13
2022-12-13T10:39:40.898Z,13.53
2022-12-13T10:42:22.636Z,13.90
2022-12-13T10:45:15.078Z,13.57
2022-12-13T10:47:45.405Z,12.07
2022-12-13T10:50:26.391Z,10.43
2022-12-13T10:52:56.120Z,10.10
2022-12-13T10:55:31.911Z,11.37
2022-12-13T10:58:03.287Z,9.03
2022-12-13T11:00:39.879Z,12.70
2022-12-13T11:03:11.782Z,9.87
2022-12-13T11:05:40.809Z,9.80
2022-12-13T11:08:17.894Z,8.73
2022-12-13T11:10:48.443Z,9.80
2022-12-13T11:13:27.659Z,10.00
2022-12-13T11:15:57.781Z,8.77
2022-12-13T11:18:28.089Z,9.53
2022-12-13T11:21:00.956Z,8.23
2022-12-13T11:23:33.237Z,8.67
2022-12-13T11:26:09.968Z,9.60
2022-12-13T11:29:09.426Z,10.77
2022-12-13T11:31:51.695Z,8.30
2022-12-13T11:34:33.602Z,9.27
2022-12-13T11:37:14.397Z,9.20
2022-12-13T11:39:50.821Z,8.00
2022-12-13T11:42:28.288Z,7.67
2022-12-13T11:45:07.496Z,7.07
2022-12-13T11:47:45.526Z,9.63
2022-12-13T11:50:33.177Z,7.17
2022-12-13T11:53:23.895Z,6.37
2022-12-13T11:55:57.620Z,6.80
2022-12-13T11:59:01.917Z,8.17
2022-12-13T12:01:38.641Z,7.63
2022-12-13T12:04:19.044Z,7.60
2022-12-13T12:06:52.844Z,5.80
2022-12-13T12:09:24.483Z,5.90
2022-12-13T12:12:02.117Z,7.33
2022-12-13T12:14:43.446Z,6.43
2022-12-13T12:17:15.770Z,7.27
2022-12-13T12:19:47.849Z,5.73
2022-12-13T12:22:32.928Z,8.27
2022-12-13T12:25:18.268Z,7.27
2022-12-13T12:27:56.350Z,8.27
2022-12-13T12:30:35.585Z,7.77
2022-12-13T12:33:17.668Z,6.47
2022-12-13T12:36:22.202Z,7.83
2022-12-13T12:39:26.405Z,6.70
2022-12-13T12:42:17.641Z,9.37
2022-12-13T12:45:05.281Z,7.67
2022-12-13T12:48:42.761Z,8.63
2022-12-13T12:50:44.105Z,6.17
2022-12-13T12:53:39.165Z,8.57
2022-12-13T12:56:26.795Z,9.13
2022-12-13T12:59:04.850Z,7.57
2022-12-13T13:01:54.864Z,5.47
2022-12-13T13:04:31.865Z,5.37
2022-12-13T13:07:22.389Z,4.77
2022-12-13T13:09:54.878Z,6.47
2022-12-13T13:12:29.500Z,5.07
2022-12-13T13:15:00.680Z,6.00
2022-12-13T13:17:48.545Z,4.97
2022-12-13T13:20:25.386Z,5.90
2022-12-13T13:23:17.612Z,7.03
2022-12-13T13:26:16.085Z,5.50
2022-12-13T13:28:35.534Z,5.03
2022-12-13T13:31:08.190Z,5.80
2022-12-13T13:33:47.374Z,4.80
2022-12-13T13:36:47.726Z,4.80
2022-12-13T13:39:19.356Z,4.80
2022-12-13T13:42:18.606Z,6.57
2022-12-13T13:45:24.547Z,4.57
2022-12-13T13:48:20.232Z,5.63
2022-12-13T13:52:08.594Z,7.43
2022-12-13T13:55:29.991Z,5.30
2022-12-13T13:58:50.557Z,4.77
2022-12-13T14:01:44.261Z,6.10
2022-12-13T14:05:03.852Z,6.23
2022-12-13T14:08:11.688Z,8.00
2022-12-13T14:10:54.014Z,7.10
2022-12-13T14:14:38.711Z,5.97
2022-12-13T14:18:07.868Z,7.17
2022-12-13T14:20:48.913Z,4.70
2022-12-13T14:23:33.768Z,6.70
2022-12-13T14:26:42.557Z,5.20
2022-12-13T14:29:16.408Z,5.37
2022-12-13T14:31:48.052Z,6.67
2022-12-13T14:34:25.448Z,7.17
2022-12-13T14:37:01.095Z,7.43
2022-12-13T14:39:31.170Z,7.13
2022-12-13T14:42:03.767Z,7.10
2022-12-13T14:44:35.286Z,7.93
2022-12-13T14:47:06.949Z,7.33
2022-12-13T14:49:39.762Z,8.30
2022-12-13T14:52:26.671Z,5.77
2022-12-13T14:54:59.402Z,6.20
2022-12-13T14:57:31.948Z,6.77
2022-12-13T15:00:02.517Z,8.97
2022-12-13T15:02:33.401Z,7.63
2022-12-13T15:05:04.871Z,7.00
2022-12-13T15:07:37.539Z,10.10
2022-12-13T15:10:19.824Z,8.97
2022-12-13T15:12:51.711Z,8.40
2022-12-13T15:15:26.844Z,9.30
2022-12-13T15:18:08.656Z,8.80
2022-12-13T15:20:49.222Z,10.30
2022-12-13T15:23:34.817Z,8.27
2022-12-13T15:26:28.412Z,9.43
2022-12-13T15:29:10.128Z,8.23
2022-12-13T15:31:40.168Z,8.00
2022-12-13T15:34:34.944Z,11.37
2022-12-13T15:37:06.765Z,8.17
2022-12-13T15:39:40.874Z,11.53
2022-12-13T15:42:21.623Z,8.40
2022-12-13T15:44:55.089Z,9.70
2022-12-13T15:47:27.697Z,9.13
2022-12-13T15:50:00.013Z,8.67
2022-12-13T15:52:39.176Z,8.77
2022-12-13T15:55:34.943Z,9.30
2022-12-13T15:58:04.201Z,10.27
2022-12-13T16:00:36.136Z,8.97
2022-12-13T16:03:10.149Z,10.17
2022-12-13T16:05:42.466Z,9.10
2022-12-13T16:08:26.817Z,8.33
2022-12-13T16:10:55.718Z,10.27
2022-12-13T16:13:28.077Z,10.63
2022-12-13T16:16:09.431Z,9.33
2022-12-13T16:18:47.887Z,12.37
2022-12-13T16:21:16.441Z,10.97
2022-12-13T16:23:48.928Z,9.57
2022-12-13T16:26:26.693Z,11.20
2022-12-13T16:28:56.916Z,9.70
2022-12-13T16:31:35.262Z,11.10
2022-12-13T16:34:04.175Z,12.50
2022-12-13T16:36:33.019Z,9.37
2022-12-13T16:39:02.585Z,10.33
2022-12-13T16:41:31.310Z,13.03
2022-12-13T16:44:03.297Z,12.57
2022-12-13T16:47:11.451Z,12.80
2022-12-13T16:49:25.691Z,15.37
2022-12-13T16:51:54.997Z,15.40
2022-12-13T16:54:25.556Z,17.70
2022-12-13T16:56:55.388Z,18.57
2022-12-13T16:59:26.182Z,15.23
2022-12-13T17:01:56.003Z,13.93
2022-12-13T17:04:27.128Z,15.23
2022-12-13T17:06:55.781Z,11.97
2022-12-13T17:09:27.011Z,12.83
2022-12-13T17:11:55.410Z,11.70
2022-12-13T17:14:23.934Z,11.53
2022-12-13T17:16:52.346Z,13.37
2022-12-13T17:19:22.299Z,11.53
2022-12-13T17:21:50.930Z,11.33
2022-12-13T17:24:19.312Z,12.87
2022-12-13T17:26:54.716Z,11.13
2022-12-13T17:29:24.995Z,14.07
2022-12-13T17:31:53.707Z,16.47
2022-12-13T17:34:23.797Z,15.90
2022-12-13T17:36:52.181Z,12.50
2022-12-13T17:39:21.452Z,13.73
2022-12-13T17:41:55.683Z,12.73
2022-12-13T17:44:25.663Z,15.43
2022-12-13T17:46:55.404Z,16.73
2022-12-13T17:49:25.759Z,13.57
2022-12-13T17:51:55.100Z,11.03
2022-12-13T17:54:25.356Z,20.23
2022-12-13T17:56:54.421Z,16.47
2022-12-13T17:59:23.533Z,14.73
2022-12-13T18:01:52.346Z,16.90
2022-12-13T18:04:21.239Z,21.27
2022-12-13T18:06:51.824Z,16.40
2022-12-13T18:09:20.253Z,14.27
2022-12-13T18:11:48.650Z,15.67
2022-12-13T18:14:17.391Z,20.33
2022-12-13T18:16:46.343Z,14.47
2022-12-13T18:19:15.897Z,18.13
2022-12-13T18:21:44.312Z,15.00
2022-12-13T18:24:14.049Z,13.90
2022-12-13T18:26:42.429Z,14.97
2022-12-13T18:29:11.049Z,12.97
2022-12-13T18:31:39.783Z,14.47
2022-12-13T18:34:09.146Z,13.10
2022-12-13T18:36:39.545Z,11.83
2022-12-13T18:39:08.076Z,11.47
2022-12-13T18:41:37.948Z,12.27
2022-12-13T18:44:09.075Z,9.63
2022-12-13T18:46:45.739Z,12.50
2022-12-13T18:49:14.633Z,14.97
2022-12-13T18:51:42.976Z,14.03
2022-12-13T18:54:11.603Z,11.87
2022-12-13T18:56:41.983Z,12.80
2022-12-13T18:59:11.813Z,12.30
2022-12-13T19:01:40.372Z,11.87
2022-12-13T19:04:08.760Z,10.80
2022-12-13T19:06:37.166Z,12.40
2022-12-13T19:09:05.678Z,11.43
2022-12-13T19:11:34.104Z,12.13
2022-12-13T19:14:04.159Z,8.80
2022-12-13T19:16:32.944Z,12.13
2022-12-13T19:19:01.667Z,8.40
2022-12-13T19:21:30.050Z,10.40
2022-12-13T19:24:01.181Z,13.50
2022-12-13T19:26:30.654Z,12.17
2022-12-13T19:29:00.761Z,10.70
2022-12-13T19:31:32.531Z,9.70
2022-12-13T19:34:03.572Z,11.67
2022-12-13T19:36:32.846Z,12.13
2022-12-13T19:39:01.469Z,12.60
2022-12-13T19:41:32.348Z,9.73
2022-12-13T19:44:04.581Z,15.20
2022-12-13T19:46:37.397Z,11.00
2022-12-13T19:49:06.272Z,12.27
2022-12-13T19:51:39.686Z,17.50
2022-12-13T19:54:11.229Z,12.23
2022-12-13T19:56:39.591Z,14.63
2022-12-13T19:59:07.931Z,10.07
2022-12-13T20:01:38.022Z,11.90
2022-12-13T20:04:06.930Z,12.37
2022-12-13T20:06:35.632Z,10.80
2022-12-13T20:09:04.174Z,9.63
2022-12-13T20:11:32.641Z,9.93
2022-12-13T20:14:01.148Z,11.37
2022-12-13T20:16:29.712Z,10.20
2022-12-13T20:19:02.428Z,10.33
2022-12-13T20:21:31.622Z,11.50
2022-12-13T20:24:00.042Z,11.47
2022-12-13T20:26:33.302Z,11.10
2022-12-13T20:29:02.105Z,9.50
2022-12-13T20:31:33.336Z,10.77
2022-12-13T20:34:10.036Z,11.20
2022-12-13T20:36:38.875Z,10.97
2022-12-13T20:39:08.214Z,11.87
2022-12-13T20:41:37.704Z,10.27
2022-12-13T20:44:09.111Z,10.10
2022-12-13T20:46:38.361Z,9.13
2022-12-13T20:49:09.752Z,9.60
2022-12-13T20:51:41.656Z,8.60
2022-12-13T20:54:10.690Z,8.33
2022-12-13T20:56:41.430Z,7.80
2022-12-13T20:59:13.290Z,9.23
2022-12-13T21:01:43.128Z,6.70
2022-12-13T21:04:14.608Z,7.47
2022-12-13T21:06:43.426Z,7.13
2022-12-13T21:09:13.051Z,8.47
2022-12-13T21:11:44.125Z,7.00
2022-12-13T21:14:21.376Z,6.53
2022-12-13T21:16:53.168Z,9.80
2022-12-13T21:19:25.926Z,8.53
2022-12-13T21:21:56.176Z,8.07
2022-12-13T21:24:29.275Z,9.50
2022-12-13T21:26:57.779Z,10.87
2022-12-13T21:29:26.287Z,10.90
2022-12-13T21:31:55.291Z,11.70
2022-12-13T21:34:25.283Z,7.40
2022-12-13T21:36:54.489Z,6.37
2022-12-13T21:39:27.776Z,6.93
2022-12-13T21:41:56.539Z,7.47
2022-12-13T21:44:24.954Z,5.80
2022-12-13T21:49:48.676Z,8.53
2022-12-13T21:52:18.303Z,6.30
2022-12-13T21:54:46.628Z,8.10
2022-12-13T21:57:32.530Z,7.83
2022-12-13T22:00:00.867Z,6.20
2022-12-13T22:02:29.437Z,6.43
2022-12-13T22:05:00.161Z,6.60
2022-12-13T22:07:30.616Z,9.10
2022-12-13T22:10:01.211Z,5.57
2022-12-13T22:12:35.596Z,8.53
2022-12-13T22:15:05.163Z,6.00
2022-12-13T22:17:36.087Z,5.50
2022-12-13T22:20:09.917Z,9.17
2022-12-13T22:22:40.587Z,6.73
2022-12-13T22:25:10.664Z,5.27
2022-12-13T22:27:39.256Z,5.27
2022-12-13T22:30:10.373Z,5.77
2022-12-13T22:32:38.743Z,5.83
2022-12-13T22:35:09.752Z,7.30
2022-12-13T22:37:39.562Z,4.20
2022-12-13T22:40:09.653Z,6.20
2022-12-13T22:42:38.131Z,7.33
2022-12-13T22:45:07.964Z,8.57
2022-12-13T22:47:36.400Z,4.90
2022-12-13T22:50:05.470Z,5.07
2022-12-13T22:52:35.233Z,4.97
2022-12-13T22:55:03.792Z,5.03
2022-12-13T22:57:32.221Z,5.30
2022-12-13T23:00:00.585Z,6.87
2022-12-13T23:02:28.989Z,7.03
2022-12-13T23:04:57.384Z,5.70
2022-12-13T23:07:25.775Z,7.23
2022-12-13T23:09:55.510Z,4.33
2022-12-13T23:12:41.583Z,7.50
2022-12-13T23:15:11.605Z,6.67
2022-12-13T23:17:39.952Z,5.10
2022-12-13T23:20:10.596Z,5.27
2022-12-13T23:22:38.962Z,4.80
2022-12-13T23:25:10.939Z,6.73
2022-12-13T23:27:39.478Z,5.00
2022-12-13T23:30:09.524Z,3.97
2022-12-13T23:32:37.892Z,4.73
2022-12-13T23:35:08.307Z,4.80
2022-12-13T23:37:36.782Z,4.63
2022-12-13T23:40:06.296Z,5.53
2022-12-13T23:42:36.046Z,4.97
2022-12-13T23:45:04.765Z,5.40
2022-12-13T23:47:33.107Z,8.30
2022-12-13T23:50:01.469Z,7.33
2022-12-13T23:52:29.842Z,6.60
2022-12-13T23:54:58.153Z,6.73
2022-12-13T23:57:26.474Z,5.60
2022-12-13T23:59:56.186Z,4.50
